Doug C. — WTX4517 — position and weather

sailwx.info

Track history (hours):
 
Tides and Currents Weather Stations Pressure Air Temp Water Temp Dewpoint Dewpoint Depression Visibility Wind Speed Wind Dir Waves Ship Positions

Doug C.

Owner: C & C BOATS INC, HUNTINGTON BEACH, CA. More information available from US FCC via Universal Licensing System and Coast Guard Vessel Documentation Center.

Last reported at 2017-Sep-19 13:59 UTC. Time now 2017-Sep-19 16:53 UTC.
Position N 34°26' W 119°55'.

Length 22 m.

Type: Passenger vessel. MMSI: 367090830.

Date/timePositionNaut miles runAvg speedWind from/ knotsBaromVisibWave heightAir tempDewpointWater temp
2017-Sep-19 13:59N 34°26' W 119°55'0 0.3
2017-Sep-19 13:19N 34°26' W 119°56'1 1.7
2017-Sep-19 12:52N 34°25' W 119°56'1 1.9
2017-Sep-19 12:19N 34°26' W 119°55'0 0.4
2017-Sep-19 11:40N 34°26' W 119°55'0 0.0
2017-Sep-19 04:32N 34°26' W 119°55'0 0.0
2017-Sep-19 02:45N 34°26' W 119°55'0 0.0
2017-Sep-19 01:30N 34°26' W 119°55'1 2.6
2017-Sep-19 00:56N 34°24' W 119°56'2 2.3
2017-Sep-19 00:17N 34°26' W 119°55'0 0.0
2017-Sep-18 23:59N 34°26' W 119°55'0 0.0
2017-Sep-18 23:23N 34°26' W 119°55'0 0.0
2017-Sep-18 22:59N 34°26' W 119°55'0 0.0
2017-Sep-18 22:29N 34°26' W 119°55'0 0.0
2017-Sep-18 21:41N 34°26' W 119°55'0 0.0
2017-Sep-18 21:20N 34°26' W 119°55'0 0.0
2017-Sep-18 20:56N 34°26' W 119°55'2 5.1
2017-Sep-18 20:29N 34°23' W 119°54'2 0.5
2017-Sep-18 15:26N 34°26' W 119°55'0 0.0
2017-Sep-18 14:31N 34°26' W 119°55'0 0.2
2017-Sep-18 13:17N 34°26' W 119°55'3 9.1
2017-Sep-18 13:00N 34°23' W 119°54'2 1.3
2017-Sep-18 11:11N 34°26' W 119°55'0 0.0
2017-Sep-18 08:24N 34°26' W 119°55'0 0.0
2017-Sep-18 00:59N 34°26' W 119°55'0 0.7
2017-Sep-18 00:30N 34°25' W 119°56'0 0.6
2017-Sep-17 23:57N 34°26' W 119°55'0 0.0
2017-Sep-17 21:42N 34°26' W 119°55'0 0.0
2017-Sep-17 18:33N 34°26' W 119°55'0 0.0
2017-Sep-17 18:07N 34°26' W 119°55'0 0.0
2017-Sep-17 14:18N 34°26' W 119°55'0 0.2
2017-Sep-17 13:07N 34°26' W 119°55'213.4
2017-Sep-17 12:57N 34°24' W 119°55'2 1.4
2017-Sep-17 11:33N 34°26' W 119°55'0 0.0
2017-Sep-17 11:18N 34°26' W 119°55'0 0.0
2017-Sep-17 08:48N 34°26' W 119°55'0 0.0
2017-Sep-17 05:41N 34°26' W 119°55'0 0.0
2017-Sep-17 05:14N 34°26' W 119°55'0 0.0
2017-Sep-17 03:47N 34°26' W 119°55'0 0.0
2017-Sep-17 01:56N 34°26' W 119°55'0 0.0
2017-Sep-17 01:28N 34°26' W 119°55'2 4.3
2017-Sep-17 01:00N 34°24' W 119°55'2 0.9
2017-Sep-16 22:51N 34°26' W 119°55'0 0.0
2017-Sep-16 19:26N 34°26' W 119°55'0 0.2
2017-Sep-16 18:55N 34°26' W 119°55'0 0.0
2017-Sep-16 18:25N 34°26' W 119°55'0 0.0
2017-Sep-16 17:55N 34°26' W 119°55'0 0.3
2017-Sep-16 17:24N 34°26' W 119°55'0 0.0
2017-Sep-16 16:58N 34°26' W 119°55'0 0.0
2017-Sep-16 16:24N 34°26' W 119°55'0 0.4
2017-Sep-16 15:55N 34°26' W 119°55'0 0.0
2017-Sep-16 15:28N 34°26' W 119°55'0 0.0
2017-Sep-16 14:58N 34°26' W 119°55'0 0.0
2017-Sep-16 14:27N 34°26' W 119°55'0 0.0
2017-Sep-16 13:49N 34°26' W 119°55'0 0.0
2017-Sep-16 13:19N 34°26' W 119°55'2 5.6
2017-Sep-16 12:57N 34°24' W 119°55'2 3.6
2017-Sep-16 12:22N 34°26' W 119°55'0 0.0
2017-Sep-16 11:54N 34°26' W 119°55'0 0.0
2017-Sep-16 11:28N 34°26' W 119°55'0 0.0
2017-Sep-16 10:58N 34°26' W 119°55'0 0.0
2017-Sep-16 10:19N 34°26' W 119°55'0 0.0
2017-Sep-16 09:52N 34°26' W 119°55'0 0.0
2017-Sep-16 09:25N 34°26' W 119°55'0 0.0
2017-Sep-16 09:00N 34°26' W 119°55'0 0.0
2017-Sep-16 08:26N 34°26' W 119°55'0 0.0
2017-Sep-16 07:37N 34°26' W 119°55'0 0.0
2017-Sep-16 06:40N 34°26' W 119°55'0 0.0
2017-Sep-16 06:25N 34°26' W 119°55'0 0.0
2017-Sep-16 05:52N 34°26' W 119°55'0 0.0
2017-Sep-16 05:28N 34°26' W 119°55'0 0.0
2017-Sep-16 04:58N 34°26' W 119°55'0 0.0
2017-Sep-16 04:19N 34°26' W 119°55'0 0.0
2017-Sep-16 03:49N 34°26' W 119°55'0 0.0
2017-Sep-16 03:13N 34°26' W 119°55'0 0.0
2017-Sep-16 02:58N 34°26' W 119°55'0 0.0
2017-Sep-16 02:28N 34°26' W 119°55'0 0.0
2017-Sep-16 01:39N 34°26' W 119°55'0 0.0
2017-Sep-16 01:19N 34°26' W 119°55'1 2.4
2017-Sep-16 00:58N 34°25' W 119°56'1 1.6
2017-Sep-16 00:24N 34°26' W 119°55'0 0.4
2017-Sep-15 23:59N 34°26' W 119°55'0 0.0
2017-Sep-15 23:29N 34°26' W 119°55'0 0.0
2017-Sep-15 23:00N 34°26' W 119°55'0 0.0
2017-Sep-15 22:25N 34°26' W 119°55'0 0.0
2017-Sep-15 22:00N 34°26' W 119°55'0 0.0
2017-Sep-15 21:17N 34°26' W 119°55'0 0.0
2017-Sep-15 20:56N 34°26' W 119°55'2 5.7
2017-Sep-15 20:30N 34°23' W 119°54'2 3.9
2017-Sep-15 19:53N 34°26' W 119°55'0 0.0
2017-Sep-15 19:20N 34°26' W 119°55'0 0.0
2017-Sep-15 18:53N 34°26' W 119°55'0 0.0
2017-Sep-15 18:21N 34°26' W 119°55'0 0.0
2017-Sep-15 17:54N 34°26' W 119°55'0 0.0
2017-Sep-15 16:54N 34°26' W 119°55'0 0.0
2017-Sep-15 16:24N 34°26' W 119°55'0 0.0
2017-Sep-15 15:57N 34°26' W 119°55'0 0.0
2017-Sep-15 15:20N 34°26' W 119°55'0 0.0
2017-Sep-15 14:58N 34°26' W 119°55'0 0.0
2017-Sep-15 14:22N 34°26' W 119°55'0 0.0
2017-Sep-15 13:58N 34°26' W 119°55'0 0.0
2017-Sep-15 13:19N 34°26' W 119°55'2 6.7
2017-Sep-15 12:58N 34°23' W 119°54'2 4.0
2017-Sep-15 12:24N 34°26' W 119°55'0 0.0
2017-Sep-15 11:57N 34°26' W 119°55'0 0.0
2017-Sep-15 07:44N 34°26' W 119°55'0 0.0
2017-Sep-15 06:17N 34°26' W 119°55'0 0.0
2017-Sep-15 01:44N 34°26' W 119°55'0 0.0
2017-Sep-15 01:20N 34°26' W 119°55'1 2.2
2017-Sep-15 01:00N 34°25' W 119°56'1 0.2
2017-Sep-14 21:32N 34°26' W 119°55'0 0.0
2017-Sep-14 21:06N 34°26' W 119°55'2 9.4
2017-Sep-14 20:51N 34°23' W 119°54'2 3.8
2017-Sep-14 20:14N 34°26' W 119°55'0 0.8
2017-Sep-14 19:57N 34°26' W 119°55'0 0.4
2017-Sep-14 19:27N 34°26' W 119°55'0 0.0
2017-Sep-14 19:00N 34°26' W 119°55'0 0.3
2017-Sep-14 18:28N 34°26' W 119°55'0 0.0
2017-Sep-14 17:45N 34°26' W 119°55'0 0.5
2017-Sep-14 17:24N 34°26' W 119°55'0 0.0
2017-Sep-14 16:51N 34°26' W 119°55'0 0.0
2017-Sep-14 16:30N 34°26' W 119°55'2 4.1
2017-Sep-14 15:58N 34°24' W 119°55'2 3.4
2017-Sep-14 15:19N 34°26' W 119°55'0 0.5
2017-Sep-14 14:49N 34°26' W 119°55'0 0.1
2017-Sep-14 14:21N 34°26' W 119°55'0 0.7
2017-Sep-14 13:57N 34°26' W 119°55'0 0.0
2017-Sep-14 13:24N 34°26' W 119°55'0 0.0
2017-Sep-14 07:38N 34°26' W 119°55'0 0.0
2017-Sep-14 07:02N 34°26' W 119°55'0 0.0
2017-Sep-14 06:50N 34°26' W 119°55'0 0.0
2017-Sep-14 03:02N 34°26' W 119°55'0 0.0
2017-Sep-14 02:44N 34°26' W 119°55'0 0.0
2017-Sep-14 02:28N 34°26' W 119°55'0 0.0
2017-Sep-14 01:07N 34°26' W 119°55'1 6.6
2017-Sep-14 01:00N 34°25' W 119°56'1 1.6
2017-Sep-14 00:27N 34°26' W 119°55'0 0.5
2017-Sep-13 23:49N 34°26' W 119°55'0 0.0
2017-Sep-13 23:28N 34°26' W 119°55'0 0.0
2017-Sep-13 22:55N 34°26' W 119°55'0 0.0
2017-Sep-13 22:28N 34°26' W 119°55'0 0.0
2017-Sep-13 21:58N 34°26' W 119°55'0 0.2
2017-Sep-13 21:08N 34°26' W 119°55'214.7
2017-Sep-13 21:00N 34°24' W 119°55'2 3.3
2017-Sep-13 20:23N 34°26' W 119°55'0 0.0
2017-Sep-13 19:56N 34°26' W 119°55'0 0.3
2017-Sep-13 19:06N 34°26' W 119°55'0 0.0
2017-Sep-13 19:00N 34°26' W 119°55'0 0.0
2017-Sep-13 18:04N 34°26' W 119°55'0 0.0
2017-Sep-13 17:58N 34°26' W 119°55'0 0.1
2017-Sep-13 17:30N 34°26' W 119°55'0 0.1
2017-Sep-13 16:49N 34°26' W 119°55'0 0.0
2017-Sep-13 15:55N 34°26' W 119°55'0 0.0
2017-Sep-13 15:30N 34°26' W 119°55'0 0.0
2017-Sep-13 14:56N 34°26' W 119°55'0 0.0
2017-Sep-13 14:17N 34°26' W 119°55'0 0.0
2017-Sep-13 13:50N 34°26' W 119°55'0 0.0
2017-Sep-13 13:29N 34°26' W 119°55'2 4.7
2017-Sep-13 13:00N 34°23' W 119°54'2 0.6
2017-Sep-13 08:51N 34°26' W 119°55'0 0.0
2017-Sep-13 08:24N 34°26' W 119°55'0 0.0
2017-Sep-13 08:00N 34°26' W 119°55'0 0.0
2017-Sep-13 03:33N 34°26' W 119°55'0 0.0
2017-Sep-13 03:12N 34°26' W 119°55'1 0.3
2017-Sep-13 01:01N 34°25' W 119°56'114.7
2017-Sep-13 00:57N 34°24' W 119°55'2 0.6
2017-Sep-12 22:23N 34°26' W 119°55'0 0.0
2017-Sep-12 21:08N 34°26' W 119°55'0 1.1
2017-Sep-12 20:56N 34°26' W 119°55'0 0.5
2017-Sep-12 20:29N 34°26' W 119°55'0 0.0
2017-Sep-12 19:59N 34°26' W 119°55'0 0.0
2017-Sep-12 19:23N 34°26' W 119°55'0 0.0
2017-Sep-12 18:44N 34°26' W 119°55'0 0.0
2017-Sep-12 18:26N 34°26' W 119°55'0 0.0
2017-Sep-12 18:00N 34°26' W 119°55'1 1.4
2017-Sep-12 17:28N 34°25' W 119°56'1 1.0
2017-Sep-12 16:39N 34°26' W 119°55'0 0.0
2017-Sep-12 16:30N 34°26' W 119°55'0 0.0
2017-Sep-12 15:57N 34°26' W 119°55'0 0.0
2017-Sep-12 15:25N 34°26' W 119°55'0 0.0
2017-Sep-12 14:58N 34°26' W 119°55'0 0.0
2017-Sep-12 14:30N 34°26' W 119°55'0 0.0
2017-Sep-12 14:00N 34°26' W 119°55'0 0.0
2017-Sep-12 13:29N 34°26' W 119°55'2 3.1
2017-Sep-12 13:00N 34°24' W 119°55'2 3.3
2017-Sep-12 12:30N 34°26' W 119°55'0 0.0
2017-Sep-12 07:00N 34°26' W 119°55'0 0.0
2017-Sep-12 05:51N 34°26' W 119°55'0 0.0
2017-Sep-12 05:15N 34°26' W 119°55'0 0.0
2017-Sep-12 04:03N 34°26' W 119°55'0 0.0
2017-Sep-12 03:33N 34°26' W 119°55'0 0.0
2017-Sep-12 01:51N 34°26' W 119°55'0 0.5
2017-Sep-12 01:22N 34°26' W 119°55'1 2.1
2017-Sep-12 00:57N 34°25' W 119°56'1 0.3
2017-Sep-11 22:25N 34°26' W 119°55'0 0.0
2017-Sep-11 20:45N 34°26' W 119°55'0 0.0
2017-Sep-11 20:09N 34°26' W 119°55'0 0.0
2017-Sep-11 20:00N 34°26' W 119°55'0 0.0
2017-Sep-11 14:18N 34°26' W 119°55'0 0.0
2017-Sep-11 13:57N 34°26' W 119°55'1 1.8
2017-Sep-11 13:16N 34°24' W 119°56'2 5.3
2017-Sep-11 12:59N 34°23' W 119°54'2 0.2
2017-Sep-11 03:23N 34°26' W 119°55'0 0.0
2017-Sep-11 01:41N 34°26' W 119°55'0 0.0
2017-Sep-11 01:27N 34°26' W 119°55'2 3.5
2017-Sep-11 00:59N 34°24' W 119°55'2 3.4
2017-Sep-11 00:30N 34°26' W 119°55'0 0.0
2017-Sep-10 23:18N 34°26' W 119°55'0 0.0
2017-Sep-10 22:57N 34°26' W 119°55'0 0.0
2017-Sep-10 22:27N 34°26' W 119°55'0 0.0
2017-Sep-10 21:32N 34°26' W 119°55'0 0.1
2017-Sep-10 21:26N 34°26' W 119°55'0 0.0
2017-Sep-10 20:47N 34°26' W 119°55'0 0.0
2017-Sep-10 20:26N 34°26' W 119°55'0 0.0
2017-Sep-10 19:56N 34°26' W 119°55'0 0.0
2017-Sep-10 19:23N 34°26' W 119°55'0 0.0
2017-Sep-10 18:56N 34°26' W 119°55'0 0.0
2017-Sep-10 18:28N 34°26' W 119°55'0 0.0
2017-Sep-10 17:39N 34°26' W 119°55'0 0.0
2017-Sep-10 17:24N 34°26' W 119°55'0 0.0
2017-Sep-10 16:49N 34°26' W 119°55'0 0.0
2017-Sep-10 15:59N 34°26' W 119°55'0 0.0
2017-Sep-10 15:17N 34°26' W 119°55'0 0.0
2017-Sep-10 14:59N 34°26' W 119°55'0 0.0
2017-Sep-10 13:27N 34°26' W 119°55'2 5.1
2017-Sep-10 13:00N 34°23' W 119°54'2 4.6
2017-Sep-10 12:30N 34°25' W 119°55'0 0.1
2017-Sep-10 11:28N 34°26' W 119°55'0 0.0
2017-Sep-10 10:46N 34°26' W 119°55'0 0.0
2017-Sep-10 10:25N 34°26' W 119°55'0 0.0
2017-Sep-10 09:58N 34°26' W 119°55'0 0.0
2017-Sep-10 09:22N 34°26' W 119°55'0 0.0
2017-Sep-10 08:04N 34°26' W 119°55'0 0.0
2017-Sep-10 07:46N 34°26' W 119°55'0 0.0
2017-Sep-10 07:22N 34°26' W 119°55'0 0.0
2017-Sep-10 04:22N 34°26' W 119°55'0 0.0
2017-Sep-10 03:52N 34°26' W 119°55'0 0.0
2017-Sep-10 03:31N 34°26' W 119°55'0 0.0
2017-Sep-10 01:23N 34°26' W 119°55'1 2.1
2017-Sep-10 00:52N 34°25' W 119°56'1 2.0
2017-Sep-10 00:21N 34°26' W 119°55'0 0.0
2017-Sep-09 23:20N 34°26' W 119°55'0 0.0
2017-Sep-09 17:37N 34°26' W 119°55'0 0.0
2017-Sep-09 17:19N 34°26' W 119°55'0 0.0
2017-Sep-09 16:55N 34°26' W 119°55'  
Track history (hours):
 
Tides and Currents Weather Stations Pressure Air Temp Water Temp Dewpoint Dewpoint Depression Visibility Wind Speed Wind Dir Waves Ship Positions

Doug C.

Owner: C & C BOATS INC, HUNTINGTON BEACH, CA. More information available from US FCC via Universal Licensing System and Coast Guard Vessel Documentation Center.

Last reported at 2017-Sep-19 13:59 UTC. Time now 2017-Sep-19 16:53 UTC.
Position N 34°26' W 119°55'.

Length 22 m.

Type: Passenger vessel. MMSI: 367090830.

Date/timePositionNaut miles runAvg speedWind from/ knotsBaromVisibWave heightAir tempDewpointWater temp
2017-Sep-19 13:59N 34°26' W 119°55'0 0.3
2017-Sep-19 13:19N 34°26' W 119°56'1 1.7
2017-Sep-19 12:52N 34°25' W 119°56'1 1.9
2017-Sep-19 12:19N 34°26' W 119°55'0 0.4
2017-Sep-19 11:40N 34°26' W 119°55'0 0.0
2017-Sep-19 04:32N 34°26' W 119°55'0 0.0
2017-Sep-19 02:45N 34°26' W 119°55'0 0.0
2017-Sep-19 01:30N 34°26' W 119°55'1 2.6
2017-Sep-19 00:56N 34°24' W 119°56'2 2.3
2017-Sep-19 00:17N 34°26' W 119°55'0 0.0
2017-Sep-18 23:59N 34°26' W 119°55'0 0.0
2017-Sep-18 23:23N 34°26' W 119°55'0 0.0
2017-Sep-18 22:59N 34°26' W 119°55'0 0.0
2017-Sep-18 22:29N 34°26' W 119°55'0 0.0
2017-Sep-18 21:41N 34°26' W 119°55'0 0.0
2017-Sep-18 21:20N 34°26' W 119°55'0 0.0
2017-Sep-18 20:56N 34°26' W 119°55'2 5.1
2017-Sep-18 20:29N 34°23' W 119°54'2 0.5
2017-Sep-18 15:26N 34°26' W 119°55'0 0.0
2017-Sep-18 14:31N 34°26' W 119°55'0 0.2
2017-Sep-18 13:17N 34°26' W 119°55'3 9.1
2017-Sep-18 13:00N 34°23' W 119°54'2 1.3
2017-Sep-18 11:11N 34°26' W 119°55'0 0.0
2017-Sep-18 08:24N 34°26' W 119°55'0 0.0
2017-Sep-18 00:59N 34°26' W 119°55'0 0.7
2017-Sep-18 00:30N 34°25' W 119°56'0 0.6
2017-Sep-17 23:57N 34°26' W 119°55'0 0.0
2017-Sep-17 21:42N 34°26' W 119°55'0 0.0
2017-Sep-17 18:33N 34°26' W 119°55'0 0.0
2017-Sep-17 18:07N 34°26' W 119°55'0 0.0
2017-Sep-17 14:18N 34°26' W 119°55'0 0.2
2017-Sep-17 13:07N 34°26' W 119°55'213.4
2017-Sep-17 12:57N 34°24' W 119°55'2 1.4
2017-Sep-17 11:33N 34°26' W 119°55'0 0.0
2017-Sep-17 11:18N 34°26' W 119°55'0 0.0
2017-Sep-17 08:48N 34°26' W 119°55'0 0.0
2017-Sep-17 05:41N 34°26' W 119°55'0 0.0
2017-Sep-17 05:14N 34°26' W 119°55'0 0.0
2017-Sep-17 03:47N 34°26' W 119°55'0 0.0
2017-Sep-17 01:56N 34°26' W 119°55'0 0.0
2017-Sep-17 01:28N 34°26' W 119°55'2 4.3
2017-Sep-17 01:00N 34°24' W 119°55'2 0.9
2017-Sep-16 22:51N 34°26' W 119°55'0 0.0
2017-Sep-16 19:26N 34°26' W 119°55'0 0.2
2017-Sep-16 18:55N 34°26' W 119°55'0 0.0
2017-Sep-16 18:25N 34°26' W 119°55'0 0.0
2017-Sep-16 17:55N 34°26' W 119°55'0 0.3
2017-Sep-16 17:24N 34°26' W 119°55'0 0.0
2017-Sep-16 16:58N 34°26' W 119°55'0 0.0
2017-Sep-16 16:24N 34°26' W 119°55'0 0.4
2017-Sep-16 15:55N 34°26' W 119°55'0 0.0
2017-Sep-16 15:28N 34°26' W 119°55'0 0.0
2017-Sep-16 14:58N 34°26' W 119°55'0 0.0
2017-Sep-16 14:27N 34°26' W 119°55'0 0.0
2017-Sep-16 13:49N 34°26' W 119°55'0 0.0
2017-Sep-16 13:19N 34°26' W 119°55'2 5.6
2017-Sep-16 12:57N 34°24' W 119°55'2 3.6
2017-Sep-16 12:22N 34°26' W 119°55'0 0.0
2017-Sep-16 11:54N 34°26' W 119°55'0 0.0
2017-Sep-16 11:28N 34°26' W 119°55'0 0.0
2017-Sep-16 10:58N 34°26' W 119°55'0 0.0
2017-Sep-16 10:19N 34°26' W 119°55'0 0.0
2017-Sep-16 09:52N 34°26' W 119°55'0 0.0
2017-Sep-16 09:25N 34°26' W 119°55'0 0.0
2017-Sep-16 09:00N 34°26' W 119°55'0 0.0
2017-Sep-16 08:26N 34°26' W 119°55'0 0.0
2017-Sep-16 07:37N 34°26' W 119°55'0 0.0
2017-Sep-16 06:40N 34°26' W 119°55'0 0.0
2017-Sep-16 06:25N 34°26' W 119°55'0 0.0
2017-Sep-16 05:52N 34°26' W 119°55'0 0.0
2017-Sep-16 05:28N 34°26' W 119°55'0 0.0
2017-Sep-16 04:58N 34°26' W 119°55'0 0.0
2017-Sep-16 04:19N 34°26' W 119°55'0 0.0
2017-Sep-16 03:49N 34°26' W 119°55'0 0.0
2017-Sep-16 03:13N 34°26' W 119°55'0 0.0
2017-Sep-16 02:58N 34°26' W 119°55'0 0.0
2017-Sep-16 02:28N 34°26' W 119°55'0 0.0
2017-Sep-16 01:39N 34°26' W 119°55'0 0.0
2017-Sep-16 01:19N 34°26' W 119°55'1 2.4
2017-Sep-16 00:58N 34°25' W 119°56'1 1.6
2017-Sep-16 00:24N 34°26' W 119°55'0 0.4
2017-Sep-15 23:59N 34°26' W 119°55'0 0.0
2017-Sep-15 23:29N 34°26' W 119°55'0 0.0
2017-Sep-15 23:00N 34°26' W 119°55'0 0.0
2017-Sep-15 22:25N 34°26' W 119°55'0 0.0
2017-Sep-15 22:00N 34°26' W 119°55'0 0.0
2017-Sep-15 21:17N 34°26' W 119°55'0 0.0
2017-Sep-15 20:56N 34°26' W 119°55'2 5.7
2017-Sep-15 20:30N 34°23' W 119°54'2 3.9
2017-Sep-15 19:53N 34°26' W 119°55'0 0.0
2017-Sep-15 19:20N 34°26' W 119°55'0 0.0
2017-Sep-15 18:53N 34°26' W 119°55'0 0.0
2017-Sep-15 18:21N 34°26' W 119°55'0 0.0
2017-Sep-15 17:54N 34°26' W 119°55'0 0.0
2017-Sep-15 16:54N 34°26' W 119°55'0 0.0
2017-Sep-15 16:24N 34°26' W 119°55'0 0.0
2017-Sep-15 15:57N 34°26' W 119°55'0 0.0
2017-Sep-15 15:20N 34°26' W 119°55'0 0.0
2017-Sep-15 14:58N 34°26' W 119°55'0 0.0
2017-Sep-15 14:22N 34°26' W 119°55'0 0.0
2017-Sep-15 13:58N 34°26' W 119°55'0 0.0
2017-Sep-15 13:19N 34°26' W 119°55'2 6.7
2017-Sep-15 12:58N 34°23' W 119°54'2 4.0
2017-Sep-15 12:24N 34°26' W 119°55'0 0.0
2017-Sep-15 11:57N 34°26' W 119°55'0 0.0
2017-Sep-15 07:44N 34°26' W 119°55'0 0.0
2017-Sep-15 06:17N 34°26' W 119°55'0 0.0
2017-Sep-15 01:44N 34°26' W 119°55'0 0.0
2017-Sep-15 01:20N 34°26' W 119°55'1 2.2
2017-Sep-15 01:00N 34°25' W 119°56'1 0.2
2017-Sep-14 21:32N 34°26' W 119°55'0 0.0
2017-Sep-14 21:06N 34°26' W 119°55'2 9.4
2017-Sep-14 20:51N 34°23' W 119°54'2 3.8
2017-Sep-14 20:14N 34°26' W 119°55'0 0.8
2017-Sep-14 19:57N 34°26' W 119°55'0 0.4
2017-Sep-14 19:27N 34°26' W 119°55'0 0.0
2017-Sep-14 19:00N 34°26' W 119°55'0 0.3
2017-Sep-14 18:28N 34°26' W 119°55'0 0.0
2017-Sep-14 17:45N 34°26' W 119°55'0 0.5
2017-Sep-14 17:24N 34°26' W 119°55'0 0.0
2017-Sep-14 16:51N 34°26' W 119°55'0 0.0
2017-Sep-14 16:30N 34°26' W 119°55'2 4.1
2017-Sep-14 15:58N 34°24' W 119°55'2 3.4
2017-Sep-14 15:19N 34°26' W 119°55'0 0.5
2017-Sep-14 14:49N 34°26' W 119°55'0 0.1
2017-Sep-14 14:21N 34°26' W 119°55'0 0.7
2017-Sep-14 13:57N 34°26' W 119°55'0 0.0
2017-Sep-14 13:24N 34°26' W 119°55'0 0.0
2017-Sep-14 07:38N 34°26' W 119°55'0 0.0
2017-Sep-14 07:02N 34°26' W 119°55'0 0.0
2017-Sep-14 06:50N 34°26' W 119°55'0 0.0
2017-Sep-14 03:02N 34°26' W 119°55'0 0.0
2017-Sep-14 02:44N 34°26' W 119°55'0 0.0
2017-Sep-14 02:28N 34°26' W 119°55'0 0.0
2017-Sep-14 01:07N 34°26' W 119°55'1 6.6
2017-Sep-14 01:00N 34°25' W 119°56'1 1.6
2017-Sep-14 00:27N 34°26' W 119°55'0 0.5
2017-Sep-13 23:49N 34°26' W 119°55'0 0.0
2017-Sep-13 23:28N 34°26' W 119°55'0 0.0
2017-Sep-13 22:55N 34°26' W 119°55'0 0.0
2017-Sep-13 22:28N 34°26' W 119°55'0 0.0
2017-Sep-13 21:58N 34°26' W 119°55'0 0.2
2017-Sep-13 21:08N 34°26' W 119°55'214.7
2017-Sep-13 21:00N 34°24' W 119°55'2 3.3
2017-Sep-13 20:23N 34°26' W 119°55'0 0.0
2017-Sep-13 19:56N 34°26' W 119°55'0 0.3
2017-Sep-13 19:06N 34°26' W 119°55'0 0.0
2017-Sep-13 19:00N 34°26' W 119°55'0 0.0
2017-Sep-13 18:04N 34°26' W 119°55'0 0.0
2017-Sep-13 17:58N 34°26' W 119°55'0 0.1
2017-Sep-13 17:30N 34°26' W 119°55'0 0.1
2017-Sep-13 16:49N 34°26' W 119°55'0 0.0
2017-Sep-13 15:55N 34°26' W 119°55'0 0.0
2017-Sep-13 15:30N 34°26' W 119°55'0 0.0
2017-Sep-13 14:56N 34°26' W 119°55'0 0.0
2017-Sep-13 14:17N 34°26' W 119°55'0 0.0
2017-Sep-13 13:50N 34°26' W 119°55'0 0.0
2017-Sep-13 13:29N 34°26' W 119°55'2 4.7
2017-Sep-13 13:00N 34°23' W 119°54'2 0.6
2017-Sep-13 08:51N 34°26' W 119°55'0 0.0
2017-Sep-13 08:24N 34°26' W 119°55'0 0.0
2017-Sep-13 08:00N 34°26' W 119°55'0 0.0
2017-Sep-13 03:33N 34°26' W 119°55'0 0.0
2017-Sep-13 03:12N 34°26' W 119°55'1 0.3
2017-Sep-13 01:01N 34°25' W 119°56'114.7
2017-Sep-13 00:57N 34°24' W 119°55'2 0.6
2017-Sep-12 22:23N 34°26' W 119°55'0 0.0
2017-Sep-12 21:08N 34°26' W 119°55'0 1.1
2017-Sep-12 20:56N 34°26' W 119°55'0 0.5
2017-Sep-12 20:29N 34°26' W 119°55'0 0.0
2017-Sep-12 19:59N 34°26' W 119°55'0 0.0
2017-Sep-12 19:23N 34°26' W 119°55'0 0.0
2017-Sep-12 18:44N 34°26' W 119°55'0 0.0
2017-Sep-12 18:26N 34°26' W 119°55'0 0.0
2017-Sep-12 18:00N 34°26' W 119°55'1 1.4
2017-Sep-12 17:28N 34°25' W 119°56'1 1.0
2017-Sep-12 16:39N 34°26' W 119°55'0 0.0
2017-Sep-12 16:30N 34°26' W 119°55'0 0.0
2017-Sep-12 15:57N 34°26' W 119°55'0 0.0
2017-Sep-12 15:25N 34°26' W 119°55'0 0.0
2017-Sep-12 14:58N 34°26' W 119°55'0 0.0
2017-Sep-12 14:30N 34°26' W 119°55'0 0.0
2017-Sep-12 14:00N 34°26' W 119°55'0 0.0
2017-Sep-12 13:29N 34°26' W 119°55'2 3.1
2017-Sep-12 13:00N 34°24' W 119°55'2 3.3
2017-Sep-12 12:30N 34°26' W 119°55'0 0.0
2017-Sep-12 07:00N 34°26' W 119°55'0 0.0
2017-Sep-12 05:51N 34°26' W 119°55'0 0.0
2017-Sep-12 05:15N 34°26' W 119°55'0 0.0
2017-Sep-12 04:03N 34°26' W 119°55'0 0.0
2017-Sep-12 03:33N 34°26' W 119°55'0 0.0
2017-Sep-12 01:51N 34°26' W 119°55'0 0.5
2017-Sep-12 01:22N 34°26' W 119°55'1 2.1
2017-Sep-12 00:57N 34°25' W 119°56'1 0.3
2017-Sep-11 22:25N 34°26' W 119°55'0 0.0
2017-Sep-11 20:45N 34°26' W 119°55'0 0.0
2017-Sep-11 20:09N 34°26' W 119°55'0 0.0
2017-Sep-11 20:00N 34°26' W 119°55'0 0.0
2017-Sep-11 14:18N 34°26' W 119°55'0 0.0
2017-Sep-11 13:57N 34°26' W 119°55'1 1.8
2017-Sep-11 13:16N 34°24' W 119°56'2 5.3
2017-Sep-11 12:59N 34°23' W 119°54'2 0.2
2017-Sep-11 03:23N 34°26' W 119°55'0 0.0
2017-Sep-11 01:41N 34°26' W 119°55'0 0.0
2017-Sep-11 01:27N 34°26' W 119°55'2 3.5
2017-Sep-11 00:59N 34°24' W 119°55'2 3.4
2017-Sep-11 00:30N 34°26' W 119°55'0 0.0
2017-Sep-10 23:18N 34°26' W 119°55'0 0.0
2017-Sep-10 22:57N 34°26' W 119°55'0 0.0
2017-Sep-10 22:27N 34°26' W 119°55'0 0.0
2017-Sep-10 21:32N 34°26' W 119°55'0 0.1
2017-Sep-10 21:26N 34°26' W 119°55'0 0.0
2017-Sep-10 20:47N 34°26' W 119°55'0 0.0
2017-Sep-10 20:26N 34°26' W 119°55'0 0.0
2017-Sep-10 19:56N 34°26' W 119°55'0 0.0
2017-Sep-10 19:23N 34°26' W 119°55'0 0.0
2017-Sep-10 18:56N 34°26' W 119°55'0 0.0
2017-Sep-10 18:28N 34°26' W 119°55'0 0.0
2017-Sep-10 17:39N 34°26' W 119°55'0 0.0
2017-Sep-10 17:24N 34°26' W 119°55'0 0.0
2017-Sep-10 16:49N 34°26' W 119°55'0 0.0
2017-Sep-10 15:59N 34°26' W 119°55'0 0.0
2017-Sep-10 15:17N 34°26' W 119°55'0 0.0
2017-Sep-10 14:59N 34°26' W 119°55'0 0.0
2017-Sep-10 13:27N 34°26' W 119°55'2 5.1
2017-Sep-10 13:00N 34°23' W 119°54'2 4.6
2017-Sep-10 12:30N 34°25' W 119°55'0 0.1
2017-Sep-10 11:28N 34°26' W 119°55'0 0.0
2017-Sep-10 10:46N 34°26' W 119°55'0 0.0
2017-Sep-10 10:25N 34°26' W 119°55'0 0.0
2017-Sep-10 09:58N 34°26' W 119°55'0 0.0
2017-Sep-10 09:22N 34°26' W 119°55'0 0.0
2017-Sep-10 08:04N 34°26' W 119°55'0 0.0
2017-Sep-10 07:46N 34°26' W 119°55'0 0.0
2017-Sep-10 07:22N 34°26' W 119°55'0 0.0
2017-Sep-10 04:22N 34°26' W 119°55'0 0.0
2017-Sep-10 03:52N 34°26' W 119°55'0 0.0
2017-Sep-10 03:31N 34°26' W 119°55'0 0.0
2017-Sep-10 01:23N 34°26' W 119°55'1 2.1
2017-Sep-10 00:52N 34°25' W 119°56'1 2.0
2017-Sep-10 00:21N 34°26' W 119°55'0 0.0
2017-Sep-09 23:20N 34°26' W 119°55'0 0.0
2017-Sep-09 17:37N 34°26' W 119°55'0 0.0
2017-Sep-09 17:19N 34°26' W 119°55'0 0.0
2017-Sep-09 16:55N 34°26' W 119°55'  

Dump ship's entire track history